Time;durP1;ratioP1;P1;durP2;ratioP2;P2;SDS_P1;SDS_P2;PMS_P1;PMS_P2;Temp;Humidity;BMP_temperature;BMP_pressure;BME280_temperature;BME280_humidity;BME280_pressure;Samples;Min_cycle;Max_cycle;Signal;HPM_P1;HPM_P2
2022/05/13 00:00:56;;;;;;;12.93;7.68;;;;;;;;;;5013759;28;20018;-76
2022/05/13 00:03:22;;;;;;;10.98;7.50;;;;;;;;;;5012552;28;20030;-77
2022/05/13 00:05:50;;;;;;;10.80;7.85;;;;;;;;;;5012273;28;20440;-77
2022/05/13 00:08:16;;;;;;;10.60;7.53;;;;;;;;;;5013714;28;20044;-77
2022/05/13 00:10:43;;;;;;;11.27;8.70;;;;;;;;;;5013477;28;20500;-77
2022/05/13 00:13:09;;;;;;;9.73;7.65;;;;;;;;;;5012448;28;20026;-77
2022/05/13 00:15:35;;;;;;;12.00;8.15;;;;;;;;;;5012445;28;20041;-77
2022/05/13 00:18:01;;;;;;;16.23;9.30;;;;;;;;;;5012263;28;20018;-77
2022/05/13 00:20:28;;;;;;;13.65;7.78;;;;;;;;;;5012234;28;20029;-77
2022/05/13 00:22:56;;;;;;;12.43;8.48;;;;;;;;;;5013521;28;20014;-77
2022/05/13 00:25:27;;;;;;;14.55;9.10;;;;;;;;;;5012210;28;20029;-77
2022/05/13 00:27:59;;;;;;;12.88;8.18;;;;;;;;;;5012008;28;20115;-76
2022/05/13 00:30:25;;;;;;;13.10;8.55;;;;;;;;;;5013362;28;20095;-76
2022/05/13 00:32:52;;;;;;;13.95;9.52;;;;;;;;;;5013348;28;20026;-76
2022/05/13 00:35:19;;;;;;;12.57;8.38;;;;;;;;;;5013191;28;20024;-76
2022/05/13 00:37:45;;;;;;;11.65;9.60;;;;;;;;;;5012056;28;20026;-76
2022/05/13 00:40:12;;;;;;;16.38;9.52;;;;;;;;;;5011976;28;20018;-76
2022/05/13 00:42:38;;;;;;;13.52;9.88;;;;;;;;;;5013080;28;20030;-77
2022/05/13 00:45:04;;;;;;;11.10;8.93;;;;;;;;;;5013157;28;20022;-76
2022/05/13 00:47:30;;;;;;;15.95;9.88;;;;;;;;;;5011366;28;20124;-76
2022/05/13 00:49:59;;;;;;;10.00;8.10;;;;;;;;;;5011664;28;20026;-76
2022/05/13 00:52:26;;;;;;;14.93;11.40;;;;;;;;;;5011592;28;20045;-76
2022/05/13 00:54:52;;;;;;;12.45;9.93;;;;;;;;;;5013034;28;20022;-78
2022/05/13 00:57:19;;;;;;;14.68;9.43;;;;;;;;;;5012248;28;20053;-77
2022/05/13 00:59:46;;;;;;;14.73;10.05;;;;;;;;;;5012843;28;20029;-77
2022/05/13 01:02:12;;;;;;;12.43;9.25;;;;;;;;;;5012858;28;20026;-76
2022/05/13 01:04:39;;;;;;;16.15;11.02;;;;;;;;;;5012070;28;20022;-78
2022/05/13 01:07:06;;;;;;;12.32;9.35;;;;;;;;;;5010895;28;20464;-77
2022/05/13 01:09:36;;;;;;;12.63;9.70;;;;;;;;;;5012621;28;20050;-77
2022/05/13 01:12:07;;;;;;;10.77;8.98;;;;;;;;;;5012998;28;20068;-77
2022/05/13 01:14:39;;;;;;;13.80;9.15;;;;;;;;;;5012260;28;20045;-77
2022/05/13 01:20:03;;;;;;;17.85;12.32;;;;;;;;;;5012235;28;20116;-77
2022/05/13 01:22:29;;;;;;;9.27;8.13;;;;;;;;;;5011197;28;20047;-76
2022/05/13 01:24:55;;;;;;;10.18;7.72;;;;;;;;;;5011208;28;20026;-76
2022/05/13 01:27:21;;;;;;;12.40;8.63;;;;;;;;;;5012324;28;20045;-76
2022/05/13 01:29:48;;;;;;;11.90;8.85;;;;;;;;;;5011084;28;20026;-76
2022/05/13 01:32:15;;;;;;;10.85;8.25;;;;;;;;;;5011152;28;20026;-77
2022/05/13 01:34:42;;;;;;;11.35;9.10;;;;;;;;;;5012142;28;20259;-77
2022/05/13 01:37:08;;;;;;;14.70;9.32;;;;;;;;;;5012503;28;20381;-77
2022/05/13 01:39:35;;;;;;;10.75;8.93;;;;;;;;;;5012047;28;20025;-76
2022/05/13 01:42:01;;;;;;;10.90;8.10;;;;;;;;;;5012160;28;20458;-77
2022/05/13 01:44:27;;;;;;;12.43;8.70;;;;;;;;;;5010949;28;20465;-77
2022/05/13 01:46:53;;;;;;;13.70;8.10;;;;;;;;;;5012438;28;20076;-77
2022/05/13 01:49:19;;;;;;;13.30;9.57;;;;;;;;;;5012142;28;20062;-77
2022/05/13 01:51:45;;;;;;;16.50;11.95;;;;;;;;;;5012376;28;20032;-77
2022/05/13 01:54:11;;;;;;;15.02;11.85;;;;;;;;;;5012133;28;20025;-78
2022/05/13 01:56:37;;;;;;;19.48;11.73;;;;;;;;;;5010801;28;20018;-76
2022/05/13 01:59:03;;;;;;;22.17;14.15;;;;;;;;;;5010828;28;20021;-77
2022/05/13 02:01:29;;;;;;;19.92;13.95;;;;;;;;;;5010628;28;20472;-77
2022/05/13 02:03:55;;;;;;;16.58;12.60;;;;;;;;;;5012040;28;20057;-77
2022/05/13 02:06:26;;;;;;;21.67;11.40;;;;;;;;;;5011808;28;20103;-77
2022/05/13 02:08:54;;;;;;;17.80;12.05;;;;;;;;;;5012549;28;20042;-77
2022/05/13 02:11:21;;;;;;;15.48;11.13;;;;;;;;;;5015756;28;20105;-77
2022/05/13 02:13:47;;;;;;;19.00;10.82;;;;;;;;;;5014603;28;20358;-76
2022/05/13 02:16:13;;;;;;;19.08;12.50;;;;;;;;;;5014484;28;20053;-77
2022/05/13 02:18:39;;;;;;;19.73;12.77;;;;;;;;;;5015842;28;20073;-77
2022/05/13 02:21:06;;;;;;;20.25;12.07;;;;;;;;;;5015615;28;20022;-78
2022/05/13 02:23:32;;;;;;;17.08;12.05;;;;;;;;;;5014449;28;20018;-77
2022/05/13 02:26:04;;;;;;;21.80;12.95;;;;;;;;;;5016007;28;20026;-77
2022/05/13 02:28:30;;;;;;;13.95;11.70;;;;;;;;;;5015514;28;20041;-77
2022/05/13 02:30:56;;;;;;;19.67;13.48;;;;;;;;;;5014406;28;20030;-77
2022/05/13 02:33:23;;;;;;;14.45;11.88;;;;;;;;;;5015317;28;20101;-77
2022/05/13 02:35:49;;;;;;;19.98;13.77;;;;;;;;;;5014326;28;20072;-78
2022/05/13 02:38:16;;;;;;;16.75;11.55;;;;;;;;;;5014105;28;20034;-76
2022/05/13 02:43:28;;;;;;;15.70;11.27;;;;;;;;;;5015294;28;20037;-75
2022/05/13 02:45:54;;;;;;;15.57;11.88;;;;;;;;;;5015296;28;20029;-75
2022/05/13 02:48:20;;;;;;;20.65;13.25;;;;;;;;;;5013879;28;20037;-75
2022/05/13 02:50:47;;;;;;;20.65;13.50;;;;;;;;;;5015291;28;20030;-76
2022/05/13 02:53:13;;;;;;;19.23;13.85;;;;;;;;;;5013803;28;20049;-75
2022/05/13 02:55:39;;;;;;;21.95;14.23;;;;;;;;;;5014009;28;20026;-77
2022/05/13 02:58:05;;;;;;;16.38;12.02;;;;;;;;;;5013754;28;20026;-76
2022/05/13 03:00:31;;;;;;;14.05;11.27;;;;;;;;;;5015130;28;20026;-76
2022/05/13 03:02:58;;;;;;;21.13;11.60;;;;;;;;;;5013813;28;20068;-76
2022/05/13 03:05:24;;;;;;;18.60;12.13;;;;;;;;;;5014323;28;20096;-76
2022/05/13 03:07:50;;;;;;;19.00;13.02;;;;;;;;;;5015286;28;20045;-80
2022/05/13 03:10:17;;;;;;;18.63;12.82;;;;;;;;;;5015104;28;20048;-78
2022/05/13 03:12:43;;;;;;;18.17;12.23;;;;;;;;;;5013718;28;20056;-76
2022/05/13 03:15:10;;;;;;;17.83;13.25;;;;;;;;;;5013508;28;20535;-77
2022/05/13 03:17:37;;;;;;;16.27;12.75;;;;;;;;;;5013568;28;20493;-76
2022/05/13 03:20:06;;;;;;;19.05;12.48;;;;;;;;;;5013856;28;20075;-77
2022/05/13 03:22:32;;;;;;;20.10;13.77;;;;;;;;;;5014756;28;20029;-77
2022/05/13 03:24:59;;;;;;;18.63;12.15;;;;;;;;;;5014670;28;20022;-76
2022/05/13 03:27:26;;;;;;;21.08;13.55;;;;;;;;;;5013268;28;20121;-77
2022/05/13 03:29:52;;;;;;;16.42;13.45;;;;;;;;;;5014607;28;20504;-77
2022/05/13 03:32:18;;;;;;;16.42;12.63;;;;;;;;;;5014170;28;20033;-77
2022/05/13 03:34:44;;;;;;;20.27;12.95;;;;;;;;;;5013081;28;20029;-77
2022/05/13 03:37:10;;;;;;;17.98;11.75;;;;;;;;;;5013208;28;20384;-78
2022/05/13 03:39:36;;;;;;;19.83;12.85;;;;;;;;;;5014340;28;20080;-77
2022/05/13 03:42:03;;;;;;;17.13;13.15;;;;;;;;;;5013193;28;20064;-78
2022/05/13 03:44:29;;;;;;;21.92;13.52;;;;;;;;;;5014477;28;20523;-78
2022/05/13 03:46:55;;;;;;;17.33;13.15;;;;;;;;;;5012915;28;20037;-76
2022/05/13 03:49:21;;;;;;;20.80;13.60;;;;;;;;;;5012741;28;20034;-77
2022/05/13 03:51:47;;;;;;;18.23;12.88;;;;;;;;;;5014202;28;20029;-77
2022/05/13 03:54:13;;;;;;;17.67;13.82;;;;;;;;;;5014326;28;20029;-77
2022/05/13 03:56:39;;;;;;;15.95;13.38;;;;;;;;;;5014072;28;20032;-77
2022/05/13 03:59:06;;;;;;;18.27;12.95;;;;;;;;;;5013695;28;20018;-77
2022/05/13 04:01:32;;;;;;;23.90;12.82;;;;;;;;;;5013369;28;20056;-77
2022/05/13 04:03:58;;;;;;;21.38;13.77;;;;;;;;;;5012571;28;20041;-77
2022/05/13 04:09:08;;;;;;;15.07;12.48;;;;;;;;;;5012325;28;20049;-78
2022/05/13 04:11:37;;;;;;;18.20;13.45;;;;;;;;;;5014073;28;20064;-84
2022/05/13 04:16:50;;;;;;;17.73;13.10;;;;;;;;;;5013844;28;20033;-79
2022/05/13 04:19:16;;;;;;;16.73;12.13;;;;;;;;;;5014036;28;20454;-83
2022/05/13 04:21:42;;;;;;;15.70;12.88;;;;;;;;;;5013055;28;20026;-81
2022/05/13 04:24:10;;;;;;;19.15;11.93;;;;;;;;;;5012203;28;20104;-80
2022/05/13 04:26:36;;;;;;;17.25;11.50;;;;;;;;;;5010027;28;20050;-80
2022/05/13 04:29:03;;;;;;;22.35;13.68;;;;;;;;;;5012524;28;20088;-81
2022/05/13 04:31:31;;;;;;;21.17;13.50;;;;;;;;;;5012512;28;20087;-80
2022/05/13 04:33:57;;;;;;;19.80;12.02;;;;;;;;;;5012880;28;20018;-81
2022/05/13 04:36:24;;;;;;;20.63;13.00;;;;;;;;;;5012588;28;20022;-81
2022/05/13 04:38:50;;;;;;;15.32;11.52;;;;;;;;;;5012976;28;20049;-77
2022/05/13 04:44:02;;;;;;;17.48;11.95;;;;;;;;;;5012855;28;20076;-77
2022/05/13 04:46:28;;;;;;;23.38;12.27;;;;;;;;;;5012677;28;20022;-79
2022/05/13 04:48:54;;;;;;;18.85;11.95;;;;;;;;;;5012991;28;20481;-79
2022/05/13 04:51:20;;;;;;;27.85;14.75;;;;;;;;;;5012780;28;20026;-77
2022/05/13 04:53:48;;;;;;;19.92;12.48;;;;;;;;;;5013163;28;20037;-76
2022/05/13 04:56:14;;;;;;;13.88;11.75;;;;;;;;;;5011487;28;20053;-78
2022/05/13 04:58:42;;;;;;;26.77;14.45;;;;;;;;;;5011662;28;20021;-78
2022/05/13 05:01:09;;;;;;;16.85;12.07;;;;;;;;;;5012772;28;20029;-78
2022/05/13 05:03:37;;;;;;;15.98;11.85;;;;;;;;;;5012550;28;20504;-78
2022/05/13 05:06:04;;;;;;;20.02;13.65;;;;;;;;;;5008754;28;20084;-77
2022/05/13 05:08:31;;;;;;;17.15;12.73;;;;;;;;;;5011936;28;20034;-78
2022/05/13 05:10:57;;;;;;;18.25;12.27;;;;;;;;;;5012533;28;20501;-79
2022/05/13 05:13:25;;;;;;;18.50;12.70;;;;;;;;;;5012583;28;20065;-78
2022/05/13 05:15:51;;;;;;;16.75;12.52;;;;;;;;;;5010876;28;20095;-77
2022/05/13 05:18:17;;;;;;;29.17;13.35;;;;;;;;;;5011095;28;20022;-79
2022/05/13 05:20:44;;;;;;;20.85;12.77;;;;;;;;;;5004120;28;20033;-77
2022/05/13 05:23:17;;;;;;;21.67;12.88;;;;;;;;;;5012025;28;20018;-77
2022/05/13 05:25:43;;;;;;;;;;;;;;;;;;5012300;28;20033;-78
2022/05/13 05:28:10;;;;;;;22.85;13.80;;;;;;;;;;5010984;28;19913;-78
2022/05/13 05:30:37;;;;;;;19.38;14.00;;;;;;;;;;5011863;28;20030;-77
2022/05/13 05:33:03;;;;;;;17.98;12.82;;;;;;;;;;5012113;28;20473;-77
2022/05/13 05:35:29;;;;;;;17.42;12.40;;;;;;;;;;5010946;28;20018;-78
2022/05/13 05:37:55;;;;;;;24.27;16.02;;;;;;;;;;5010162;28;20034;-78
2022/05/13 05:40:21;;;;;;;16.05;12.82;;;;;;;;;;5010671;28;20358;-77
2022/05/13 05:42:50;;;;;;;26.17;15.10;;;;;;;;;;5010472;28;20030;-80
2022/05/13 05:45:18;;;;;;;17.75;13.48;;;;;;;;;;5011299;28;20105;-82
2022/05/13 05:47:44;;;;;;;19.88;13.82;;;;;;;;;;5012282;28;20045;-79
2022/05/13 05:50:12;;;;;;;22.58;14.27;;;;;;;;;;5011609;28;20105;-78
2022/05/13 05:52:38;;;;;;;20.67;14.13;;;;;;;;;;5011697;28;20046;-78
2022/05/13 05:57:57;;;;;;;21.33;13.07;;;;;;;;;;5010503;28;20377;-78
2022/05/13 06:00:23;;;;;;;20.85;14.07;;;;;;;;;;5010683;28;20073;-78
2022/05/13 06:02:49;;;;;;;18.55;12.40;;;;;;;;;;5009371;28;20470;-80
2022/05/13 06:05:15;;;;;;;24.90;11.57;;;;;;;;;;5008473;28;20421;-78
2022/05/13 06:07:42;;;;;;;14.05;10.35;;;;;;;;;;4991514;28;20053;-78
2022/05/13 06:10:08;;;;;;;16.25;11.85;;;;;;;;;;4990893;28;20057;-78
2022/05/13 06:12:34;;;;;;;14.85;12.02;;;;;;;;;;4989106;28;20117;-79
2022/05/13 06:15:02;;;;;;;19.75;11.85;;;;;;;;;;4989103;28;20030;-78
2022/05/13 06:17:28;;;;;;;15.25;9.73;;;;;;;;;;4989063;28;20018;-78
2022/05/13 06:19:54;;;;;;;10.82;9.68;;;;;;;;;;4988929;28;20046;-79
2022/05/13 06:22:21;;;;;;;13.23;10.10;;;;;;;;;;4990510;28;20109;-79
2022/05/13 06:24:47;;;;;;;17.25;10.48;;;;;;;;;;4989248;28;20133;-77
2022/05/13 06:27:13;;;;;;;12.30;9.75;;;;;;;;;;4990202;28;20033;-78
2022/05/13 06:29:39;;;;;;;12.43;9.73;;;;;;;;;;4991830;28;20212;-79
2022/05/13 06:32:06;;;;;;;13.07;10.57;;;;;;;;;;4990646;28;20405;-78
2022/05/13 06:34:32;;;;;;;17.48;10.75;;;;;;;;;;4991854;28;20146;-77
2022/05/13 06:36:58;;;;;;;15.18;8.95;;;538.50;2406.40;;;;;;4991735;28;20018;-79
2022/05/13 06:39:24;;;;;;;13.15;10.48;;;;;;;;;;4990442;28;20076;-78
2022/05/13 06:41:50;;;;;;;15.85;11.27;;;;;;;;;;4991962;28;20022;-78
2022/05/13 06:44:18;;;;;;;13.23;10.30;;;;;;;;;;4990528;28;20026;-79
2022/05/13 06:46:44;;;;;;;16.73;11.00;;;;;;;;;;4992082;28;20022;-78
2022/05/13 06:49:12;;;;;;;22.30;12.30;;;;;;;;;;4991862;28;20057;-79
2022/05/13 06:51:40;;;;;;;19.70;14.27;;;;;;;;;;4991862;28;20106;-78
2022/05/13 06:54:09;;;;;;;17.50;13.80;;;;;;;;;;4991270;28;20501;-78
2022/05/13 06:56:36;;;;;;;22.73;14.93;;;;;;;;;;4994145;28;20026;-79
2022/05/13 06:59:02;;;;;;;29.30;21.23;;;;;;;;;;4995512;28;20023;-79
2022/05/13 07:01:29;;;;;;;25.77;17.52;;;;;;;;;;4994150;28;20424;-79
2022/05/13 07:03:55;;;;;;;28.23;20.15;;;;;;;;;;4995242;28;20027;-79
2022/05/13 07:06:21;;;;;;;35.58;23.67;;;;;;;;;;4995120;28;20328;-79
2022/05/13 07:08:49;;;;;;;17.27;10.77;;;;;;;;;;4993635;28;20198;-79
2022/05/13 07:11:16;;;;;;;31.30;15.23;;;;;;;;;;4993599;28;20113;-78
2022/05/13 07:13:42;;;;;;;27.13;15.65;;;;;;;;;;4993754;28;20492;-77
2022/05/13 07:16:08;;;;;;;27.35;14.70;;;;;;;;;;4994688;28;20088;-78
2022/05/13 07:18:36;;;;;;;21.25;10.93;;;;;;;;;;4993808;28;20049;-79
2022/05/13 07:21:02;;;;;;;16.15;9.75;;;;;;;;;;4993762;28;20564;-79
2022/05/13 07:23:29;;;;;;;20.58;11.07;;;;;;;;;;4994704;28;20030;-79
2022/05/13 07:25:56;;;;;;;15.88;10.02;;;;;;;;;;4993742;28;20034;-80
2022/05/13 07:28:22;;;;;;;18.27;10.45;;;;;;;;;;4993625;28;20125;-80
2022/05/13 07:30:48;;;;;;;21.13;12.95;;;;;;;;;;4994881;28;20030;-79
2022/05/13 07:33:15;;;;;;;22.45;11.88;;;;;;;;;;4994981;28;20401;-79
2022/05/13 07:35:41;;;;;;;17.42;10.82;;;;;;;;;;4993453;28;20031;-79
2022/05/13 07:38:08;;;;;;;15.35;10.68;;;;;;;;;;4993498;28;20031;-78
2022/05/13 07:43:35;;;;;;;21.38;12.50;;;;;;;;;;4972109;28;20038;-79
2022/05/13 07:46:02;;;;;;;18.63;12.77;;;;;;;;;;4994062;28;20030;-79
2022/05/13 07:48:28;;;;;;;26.17;13.02;;;;;;;;;;5014356;28;20034;-77
2022/05/13 07:50:55;;;;;;;17.25;10.40;;;;;;;;;;5013980;28;20540;-79
2022/05/13 07:53:21;;;;;;;21.35;12.73;;;;;;;;;;5012715;28;20469;-80
2022/05/13 07:55:48;;;;;;;21.42;11.57;;;;;;;;;;5012488;28;20022;-79
2022/05/13 07:58:16;;;;;;;24.38;12.55;;;;;;;;;;5012372;28;20413;-77
2022/05/13 08:00:43;;;;;;;25.92;16.65;;;;;;;;;;5013863;28;20073;-77
2022/05/13 08:03:11;;;;;;;14.73;11.55;;;;;;;;;;5013828;28;20100;-78
2022/05/13 08:05:47;;;;;;;18.85;11.80;;;;;;;;;;5012699;28;20092;-78
2022/05/13 08:08:16;;;;;;;14.63;9.18;;;;;;;;;;4992203;28;20058;-79
2022/05/13 08:10:44;;;;;;;17.85;11.10;;;;;;;;;;4994036;28;20053;-78
2022/05/13 08:13:11;;;;;;;16.52;11.02;;;;;;;;;;4994425;28;20030;-78
2022/05/13 08:15:37;;;;;;;16.50;11.50;;;;;;;;;;4994764;28;20160;-79
2022/05/13 08:18:04;;;;;;;15.95;9.68;;;;;;;;;;5012381;28;20496;-78
2022/05/13 08:20:31;;;;;;;13.35;8.38;;;;;;;;;;5013626;28;20033;-79
2022/05/13 08:22:57;;;;;;;10.25;7.07;;;;;;;;;;5004623;28;20022;-80
2022/05/13 08:25:23;;;;;;;10.43;7.47;;;;;;;;;;4992338;28;20034;-78
2022/05/13 08:27:49;;;;;;;14.25;7.70;;;;;;;;;;4992318;28;20045;-79
2022/05/13 08:30:16;;;;;;;11.80;8.30;;;;;;;;;;5008058;28;20076;-78
2022/05/13 08:32:42;;;;;;;13.98;9.63;;;;;;;;;;5013537;28;20117;-78
2022/05/13 08:35:08;;;;;;;18.02;7.38;;;;;;;;;;5013565;28;20022;-78
2022/05/13 08:37:45;;;;;;;11.38;6.68;;;;;;;;;;5012940;28;20022;-78
2022/05/13 08:40:22;;;;;;;13.98;7.40;;;;;;;;;;5012758;28;20494;-80
2022/05/13 08:42:49;;;;;;;14.10;7.55;;;;;;;;;;5011619;28;20058;-79
2022/05/13 08:45:17;;;;;;;9.88;7.47;;;;;;;;;;5012669;28;20014;-79
2022/05/13 08:47:57;;;;;;;17.02;7.13;;;;;;;;;;5011456;28;20064;-79
2022/05/13 08:50:23;;;;;;;16.27;12.57;;;;;;;;;;5012794;28;20022;-78
2022/05/13 08:53:06;;;;;;;12.40;9.27;;;;;;;;;;5012436;28;20014;-79
2022/05/13 08:55:35;;;;;;;17.45;10.60;;;;;;;;;;5012600;28;20033;-80
2022/05/13 08:58:04;;;;;;;9.73;7.50;;;;;;;;;;5012841;28;20112;-79
2022/05/13 09:00:30;;;;;;;11.05;7.43;;;;;;;;;;5012708;28;20026;-80
2022/05/13 09:03:06;;;;;;;12.45;9.43;;;;;;;;;;5012600;28;20033;-78
2022/05/13 09:05:41;;;;;;;11.38;8.73;;;;;;;;;;5012749;28;20054;-78
2022/05/13 09:08:08;;;;;;;16.05;7.22;;;;;;;;;;5007876;28;20432;-78
2022/05/13 09:10:54;;;;;;;17.33;8.68;;;;;;;;;;5012382;28;20018;-79
2022/05/13 09:13:25;;;;;;;9.50;6.75;;;;;;;;;;5011054;28;20029;-80
2022/05/13 09:15:55;;;;;;;14.52;6.28;;;;;;;;;;5012557;28;20108;-78
2022/05/13 09:18:34;;;;;;;10.00;6.72;;;;;;;;;;5011308;28;20025;-77
2022/05/13 09:21:04;;;;;;;8.38;6.70;;;;;;;;;;5012310;28;20034;-78
2022/05/13 09:23:30;;;;;;;8.38;5.97;;;;;;;;;;5011206;28;20029;-79
2022/05/13 09:26:06;;;;;;;12.00;6.53;;;;;;;;;;5010981;28;20072;-78
2022/05/13 09:28:33;;;;;;;8.45;5.88;;;;;;;;;;5010864;28;20543;-78
2022/05/13 09:31:18;;;;;;;15.77;5.95;;;;;;;;;;5011103;28;20049;-78
2022/05/13 09:33:49;;;;;;;13.32;9.85;;;;;;;;;;5011004;28;20075;-77
2022/05/13 09:36:24;;;;;;;7.60;5.72;;;;;;;;;;5012210;28;20025;-76
2022/05/13 09:38:51;;;;;;;14.00;8.35;;;;;;;;;;5012144;28;20477;-77
2022/05/13 09:41:26;;;;;;;12.80;7.05;;;;;;;;;;5010829;28;20030;-78
2022/05/13 09:43:52;;;;;;;16.95;10.77;;;;;;;;;;5012116;28;20068;-78
2022/05/13 09:46:22;;;;;;;8.82;5.85;;;;;;;;;;5010373;28;20388;-78
2022/05/13 09:48:54;;;;;;;9.55;6.18;;;;;;;;;;5011040;28;20041;-76
2022/05/13 09:51:24;;;;;;;11.15;6.47;;;;;;;;;;5011756;28;20952;-77
2022/05/13 09:54:31;;;;;;;11.70;8.65;;;;;;;;;;5012124;28;20069;-81
2022/05/13 09:57:17;;;;;;;8.35;6.00;;;;;;;;;;4951721;28;20028;-83
2022/05/13 09:59:44;;;;;;;10.43;6.75;;;;;;;;;;4951775;28;20054;-83
2022/05/13 10:02:16;;;;;;;9.48;5.88;;;;;;;;;;4979403;28;20026;-84
2022/05/13 10:04:42;;;;;;;10.23;6.50;;;;;;;;;;4992014;28;20018;-84
2022/05/13 10:07:09;;;;;;;9.10;5.90;;;;;;;;;;4992505;28;20053;-83
2022/05/13 10:15:20;;;;;;;8.80;7.07;;;;;;;;;;5012743;28;20084;-83
2022/05/13 10:17:51;;;;;;;29.25;22.25;;;;;;;;;;5012618;28;20026;-83
2022/05/13 10:20:28;;;;;;;10.10;6.55;;;;;;;;;;5011882;28;20018;-84
2022/05/13 10:23:05;;;;;;;14.02;7.20;;;;;;;;;;5011806;28;20033;-82
2022/05/13 10:25:34;;;;;;;9.18;6.32;;;;;;;;;;5011523;28;20033;-85
2022/05/13 10:28:11;;;;;;;10.38;7.75;;;;;;;;;;5004933;28;20088;-84
2022/05/13 10:30:56;;;;;;;13.60;9.30;;;;;;;;;;5014665;28;20097;-84
2022/05/13 10:33:29;;;;;;;11.73;8.98;;;;;;;;;;5014921;28;20018;-86
2022/05/13 10:36:14;;;;;;;17.35;10.93;;;;;;;;;;5015592;28;20022;-86
2022/05/13 10:38:55;;;;;;;26.88;21.92;;;;;;;;;;5000078;28;20118;-83
2022/05/13 10:41:27;;;;;;;8.93;5.93;;;;;;;;;;5013158;28;20034;-84
2022/05/13 10:43:56;;;;;;;12.10;9.40;;;;;;;;;;5000648;28;20026;-80
2022/05/13 10:46:44;;;;;;;8.07;4.97;;;;;;;;;;5013943;28;20072;-80
2022/05/13 10:49:11;;;;;;;6.50;4.85;;;;;;;;;;4995732;28;20033;-83
2022/05/13 10:51:40;;;;;;;10.07;4.25;;;;;;;;;;5005936;28;20044;-80
2022/05/13 10:54:09;;;;;;;8.15;6.53;;;;;;;;;;5013727;28;20072;-87
2022/05/13 10:56:35;;;;;;;18.42;8.50;;;;;;;;;;5013719;28;21319;-84
2022/05/13 10:59:10;;;;;;;8.15;5.28;;;;;;;;;;5003003;28;20022;-82
2022/05/13 11:01:41;;;;;;;11.60;6.00;;;;;;;;;;5017901;28;20042;-84
2022/05/13 11:04:17;;;;;;;10.55;7.57;;;;;;;;;;5008967;28;20023;-85
2022/05/13 11:06:50;;;;;;;21.48;13.18;;;;;;;;;;5014923;28;20046;-82
2022/05/13 11:09:22;;;;;;;10.50;6.30;;;;;;;;;;4997973;28;20476;-82
2022/05/13 11:11:48;;;;;;;12.40;6.60;;;;;;;;;;4996564;28;20117;-83
2022/05/13 11:14:14;;;;;;;8.05;6.32;;;;;;;;;;5006079;28;20026;-82
2022/05/13 11:16:59;;;;;;;9.88;5.22;;;;;;;;;;5002442;28;20025;-81
2022/05/13 11:19:37;;;;;;;5.82;4.22;;;;;;;;;;5013615;28;20018;-81
2022/05/13 11:22:11;;;;;;;13.45;8.70;;;;;;;;;;4997196;28;20037;-83
2022/05/13 11:27:28;;;;;;;6.38;4.43;;;;;;;;;;5015648;28;20539;-84
2022/05/13 11:30:02;;;;;;;12.65;6.05;;;;;;;;;;4999604;28;20125;-81
2022/05/13 11:32:46;;;;;;;9.23;4.57;;;;;;;;;;5002568;28;20492;-84
2022/05/13 11:35:19;;;;;;;14.35;7.68;;;;;;;;;;4996694;28;20026;-85
2022/05/13 11:37:46;;;;;;;10.45;6.15;;;;;;;;;;4994299;28;20077;-85
2022/05/13 11:40:36;;;;;;;18.65;8.55;;;;;;;;;;5004621;28;20033;-85
2022/05/13 11:43:21;;;;;;;16.20;6.78;;;;;;;;;;5010385;28;20033;-83
2022/05/13 11:46:02;;;;;;;10.23;5.20;;;;;;;;;;5012031;28;20156;-85
2022/05/13 11:48:30;;;;;;;14.13;9.27;;;;;;;;;;5000613;28;20031;-81
2022/05/13 11:51:07;;;;;;;9.07;7.57;;;;;;;;;;5012267;28;20029;-77
2022/05/13 11:53:42;;;;;;;13.40;10.35;;;;;;;;;;5001360;28;20512;-79
2022/05/13 11:56:14;;;;;;;9.50;6.90;;;;;;;;;;5008075;28;20027;-80
2022/05/13 11:58:52;;;;;;;13.77;9.30;;;;;;;;;;4994749;28;20474;-83
2022/05/13 12:01:37;;;;;;;11.30;9.82;;;;;;;;;;5009299;28;20291;-82
2022/05/13 12:04:29;;;;;;;13.23;8.90;;;;;;;;;;4998392;28;20540;-82
2022/05/13 12:06:57;;;;;;;8.70;6.55;;;;;;;;;;5004599;28;20074;-83
2022/05/13 12:09:37;;;;;;;7.40;4.97;;;;;;;;;;5002357;28;20121;-83
2022/05/13 12:12:21;;;;;;;14.98;8.90;;;;;;;;;;5009699;28;20117;-82
2022/05/13 12:15:11;;;;;;;8.52;5.25;;;;;;;;;;5010684;28;20489;-80
2022/05/13 12:17:46;;;;;;;5.28;4.05;;;;;;;;;;4994603;28;20112;-81
2022/05/13 12:20:20;;;;;;;17.17;9.68;;;;;;;;;;4998340;28;20022;-81
2022/05/13 12:23:00;;;;;;;8.93;4.22;;;819.70;1203.20;;;;;;4997803;28;20029;-81
2022/05/13 12:25:34;;;;;;;11.52;4.55;;;819.30;1203.20;;;;;;4997127;28;20035;-83
2022/05/13 12:28:20;;;;;;;16.30;12.57;;;819.70;1177.60;;;;;;5008146;28;20120;-81
2022/05/13 12:30:51;;;;;;;11.43;8.70;;;845.50;1177.60;;;;;;5011853;28;20026;-80
2022/05/13 12:33:20;;;;;;;9.77;6.82;;;871.30;1126.40;;;;;;4993279;28;20096;-80
2022/05/13 12:39:10;;;;;;;6.32;4.25;;;973.60;1024.00;;;;;;5011526;28;20425;-83
2022/05/13 12:41:43;;;;;;;7.07;4.95;;;973.70;1024.00;;;;;;5009837;28;20094;-82
2022/05/13 12:44:15;;;;;;;10.48;7.78;;;999.00;998.40;;;;;;4995320;28;20038;-83
2022/05/13 12:46:46;;;;;;;8.68;6.45;;;1024.20;972.80;;;;;;5011910;28;20053;-80
2022/05/13 12:49:15;;;;;;;8.85;4.57;;;;;;;;;;5011620;28;20038;-83
2022/05/13 12:52:01;;;;;;;10.02;5.50;;;896.10;1075.20;;;;;;5011567;28;20453;-84
2022/05/13 12:54:28;;;;;;;6.68;4.65;;;947.20;1024.00;;;;;;5010483;28;20049;-86
2022/05/13 12:56:59;;;;;;;9.55;6.47;;;922.30;1049.60;;;;;;5025793;28;20022;-85
2022/05/13 12:59:33;;;;;;;8.50;4.32;;;896.00;1100.80;;;;;;5011613;28;20112;-83
2022/05/13 13:02:03;;;;;;;6.85;5.80;;;845.00;1203.20;;;;;;5015320;28;20022;-81
2022/05/13 13:04:32;;;;;;;7.07;5.05;;;845.30;1203.20;;;;;;5011364;28;20737;-81
2022/05/13 13:07:07;;;;;;;8.98;6.93;;;845.20;1203.20;;;;;;5010279;28;20548;-80
2022/05/13 13:09:45;;;;;;;18.85;11.95;;;896.20;1152.00;;;;;;5011077;28;20485;-80
2022/05/13 13:12:25;;;;;;;11.60;8.30;;;896.80;1126.40;;;;;;5011063;28;20021;-82
2022/05/13 13:15:00;;;;;;;5.72;4.93;;;845.60;1228.80;;;;;;5002057;28;20026;-84
2022/05/13 13:17:45;;;;;;;10.57;6.28;;;845.20;1228.80;;;;;;5011837;28;20026;-83
2022/05/13 13:20:12;;;;;;;12.70;8.93;;;;;;;;;;5012875;28;20032;-82
2022/05/13 13:22:47;;;;;;;9.57;7.30;;;;;;;;;;5011344;28;20042;-86
2022/05/13 13:25:30;;;;;;;8.13;5.50;;;;;;;;;;5012380;28;20431;-88
2022/05/13 13:28:02;;;;;;;6.90;4.72;;;947.50;1049.60;;;;;;5011511;28;20385;-85
2022/05/13 13:30:30;;;;;;;11.35;5.35;;;947.50;1075.20;;;;;;5011361;28;20076;-86
2022/05/13 13:32:57;;;;;;;9.07;4.60;;;948.00;1049.60;;;;;;5011645;28;20021;-85
2022/05/13 13:35:28;;;;;;;10.15;4.47;;;;;;;;;;5011721;28;20072;-87
2022/05/13 13:37:54;;;;;;;6.13;4.87;;;973.50;1024.00;;;;;;5000845;28;20033;-85
2022/05/13 13:40:26;;;;;;;9.70;6.18;;;973.70;1024.00;;;;;;5010875;28;20485;-84
2022/05/13 13:42:52;;;;;;;11.20;5.97;;;998.60;1024.00;;;;;;5011952;28;20030;-85
2022/05/13 13:45:22;;;;;;;7.63;4.28;;;998.70;1024.00;;;;;;5011843;28;20026;-86
2022/05/13 13:47:50;;;;;;;9.63;5.23;;;;;;;;;;5012527;28;20036;-86
2022/05/13 13:50:22;;;;;;;6.13;4.10;;;922.50;1075.20;;;;;;5011951;28;20477;-87
2022/05/13 13:52:50;;;;;;;10.55;5.97;;;871.30;1100.80;;;;;;5012354;28;20030;-84
2022/05/13 13:55:28;;;;;;;13.40;7.88;;;896.10;1126.40;;;;;;5011986;28;20018;-87
2022/05/13 13:58:08;;;;;;;8.60;7.65;;;;;;;;;;5022811;28;20030;-83
2022/05/13 14:00:46;;;;;;;9.43;4.97;;;896.90;1075.20;;;;;;5011329;28;20018;-83
2022/05/13 14:03:16;;;;;;;6.55;5.40;;;896.60;1075.20;;;;;;5012286;28;20018;-84
2022/05/13 14:05:49;;;;;;;9.00;6.45;;;947.20;1049.60;;;;;;5010824;28;20041;-85
2022/05/13 14:08:15;;;;;;;5.80;4.55;;;973.20;1024.00;;;;;;5011654;28;20025;-85
2022/05/13 14:10:49;;;;;;;8.10;4.63;;;896.50;1049.60;;;;;;5014113;28;20520;-85
2022/05/13 14:13:15;;;;;;;8.38;5.50;;;;;;;;;;5012572;28;20400;-89
2022/05/13 14:15:43;;;;;;;7.32;4.60;;;;;;;;;;5003600;28;20050;-83
2022/05/13 14:18:11;;;;;;;7.63;5.20;;;;;;;;;;5005480;28;20112;-82
2022/05/13 14:20:39;;;;;;;7.65;4.90;;;845.60;1152.00;;;;;;5000065;28;20018;-84
2022/05/13 14:23:06;;;;;;;8.88;4.93;;;845.00;1177.60;;;;;;5012679;28;20490;-84
2022/05/13 14:25:38;;;;;;;6.55;5.30;;;845.30;1177.60;;;;;;5011406;28;20124;-86
2022/05/13 14:28:10;;;;;;;6.80;5.35;;;820.10;1177.60;;;;;;5011076;28;20470;-84
2022/05/13 14:30:38;;;;;;;7.88;5.93;;;845.10;1177.60;;;;;;5011096;28;20072;-82
2022/05/13 14:33:05;;;;;;;6.28;5.38;;;845.20;1152.00;;;;;;5010312;28;20030;-80
2022/05/13 14:35:34;;;;;;;9.95;6.07;;;870.70;1126.40;;;;;;5012781;28;20044;-83
2022/05/13 14:38:08;;;;;;;11.43;7.10;;;896.80;1049.60;;;;;;5009157;28;20026;-84
2022/05/13 14:40:46;;;;;;;5.53;4.95;;;922.40;1049.60;;;;;;5010198;28;20100;-84
2022/05/13 14:43:22;;;;;;;8.48;5.82;;;947.60;1024.00;;;;;;5010485;28;20026;-82
2022/05/13 14:45:49;;;;;;;6.75;4.50;;;921.90;1075.20;;;;;;5010048;28;20076;-82
2022/05/13 14:48:23;;;;;;;11.27;9.65;;;896.90;1049.60;;;;;;5010857;28;20045;-79